sensor_id;sensor_type;location;lat;lon;timestamp;P1;durP1;ratioP1;P2;durP2;ratioP2
9214;SDS011;4642;51.364;6.788;2024-03-08T00:01:52;17.90;;;13.97;;
9214;SDS011;4642;51.364;6.788;2024-03-08T00:04:18;19.13;;;13.60;;
9214;SDS011;4642;51.364;6.788;2024-03-08T00:06:43;18.93;;;14.27;;
9214;SDS011;4642;51.364;6.788;2024-03-08T00:09:11;18.93;;;14.30;;
9214;SDS011;4642;51.364;6.788;2024-03-08T00:11:36;20.23;;;14.13;;
9214;SDS011;4642;51.364;6.788;2024-03-08T00:14:02;16.77;;;13.73;;
9214;SDS011;4642;51.364;6.788;2024-03-08T00:16:31;21.37;;;13.80;;
9214;SDS011;4642;51.364;6.788;2024-03-08T00:18:57;21.33;;;13.77;;
9214;SDS011;4642;51.364;6.788;2024-03-08T00:21:23;18.87;;;14.63;;
9214;SDS011;4642;51.364;6.788;2024-03-08T00:23:49;18.80;;;15.10;;
9214;SDS011;4642;51.364;6.788;2024-03-08T00:26:14;20.63;;;14.60;;
9214;SDS011;4642;51.364;6.788;2024-03-08T00:28:40;19.67;;;14.27;;
9214;SDS011;4642;51.364;6.788;2024-03-08T00:31:05;21.83;;;14.47;;
9214;SDS011;4642;51.364;6.788;2024-03-08T00:33:31;20.67;;;14.50;;
9214;SDS011;4642;51.364;6.788;2024-03-08T00:35:57;18.73;;;14.20;;
9214;SDS011;4642;51.364;6.788;2024-03-08T00:38:23;18.43;;;14.30;;
9214;SDS011;4642;51.364;6.788;2024-03-08T00:40:48;18.37;;;13.97;;
9214;SDS011;4642;51.364;6.788;2024-03-08T00:43:14;23.37;;;14.90;;
9214;SDS011;4642;51.364;6.788;2024-03-08T00:45:40;18.17;;;13.80;;
9214;SDS011;4642;51.364;6.788;2024-03-08T00:48:07;18.77;;;13.83;;
9214;SDS011;4642;51.364;6.788;2024-03-08T00:50:33;17.60;;;13.83;;
9214;SDS011;4642;51.364;6.788;2024-03-08T00:53:00;19.40;;;14.57;;
9214;SDS011;4642;51.364;6.788;2024-03-08T00:55:25;20.27;;;14.63;;
9214;SDS011;4642;51.364;6.788;2024-03-08T00:57:51;19.17;;;14.73;;
9214;SDS011;4642;51.364;6.788;2024-03-08T01:00:18;18.83;;;14.07;;
9214;SDS011;4642;51.364;6.788;2024-03-08T01:02:45;19.10;;;14.40;;
9214;SDS011;4642;51.364;6.788;2024-03-08T01:05:11;19.47;;;15.70;;
9214;SDS011;4642;51.364;6.788;2024-03-08T01:07:36;21.40;;;15.63;;
9214;SDS011;4642;51.364;6.788;2024-03-08T01:10:05;20.10;;;14.73;;
9214;SDS011;4642;51.364;6.788;2024-03-08T01:12:34;19.87;;;15.40;;
9214;SDS011;4642;51.364;6.788;2024-03-08T01:15:00;19.13;;;14.93;;
9214;SDS011;4642;51.364;6.788;2024-03-08T01:17:26;20.20;;;15.77;;
9214;SDS011;4642;51.364;6.788;2024-03-08T01:19:51;20.07;;;14.87;;
9214;SDS011;4642;51.364;6.788;2024-03-08T01:22:18;20.17;;;15.33;;
9214;SDS011;4642;51.364;6.788;2024-03-08T01:24:44;20.20;;;14.83;;
9214;SDS011;4642;51.364;6.788;2024-03-08T01:27:09;22.37;;;16.07;;
9214;SDS011;4642;51.364;6.788;2024-03-08T01:29:36;20.43;;;15.17;;
9214;SDS011;4642;51.364;6.788;2024-03-08T01:32:02;19.17;;;15.30;;
9214;SDS011;4642;51.364;6.788;2024-03-08T01:34:28;20.43;;;14.33;;
9214;SDS011;4642;51.364;6.788;2024-03-08T01:36:54;21.67;;;14.73;;
9214;SDS011;4642;51.364;6.788;2024-03-08T01:39:21;21.60;;;15.47;;
9214;SDS011;4642;51.364;6.788;2024-03-08T01:41:47;21.70;;;15.03;;
9214;SDS011;4642;51.364;6.788;2024-03-08T01:44:12;22.30;;;15.47;;
9214;SDS011;4642;51.364;6.788;2024-03-08T01:46:42;20.03;;;15.13;;
9214;SDS011;4642;51.364;6.788;2024-03-08T01:49:09;23.63;;;15.13;;
9214;SDS011;4642;51.364;6.788;2024-03-08T01:51:36;21.53;;;15.07;;
9214;SDS011;4642;51.364;6.788;2024-03-08T01:54:02;19.30;;;15.10;;
9214;SDS011;4642;51.364;6.788;2024-03-08T01:56:28;23.10;;;16.70;;
9214;SDS011;4642;51.364;6.788;2024-03-08T01:58:56;20.57;;;15.13;;
9214;SDS011;4642;51.364;6.788;2024-03-08T02:01:22;23.47;;;16.37;;
9214;SDS011;4642;51.364;6.788;2024-03-08T02:03:49;23.97;;;16.50;;
9214;SDS011;4642;51.364;6.788;2024-03-08T02:06:14;20.77;;;15.30;;
9214;SDS011;4642;51.364;6.788;2024-03-08T02:08:44;21.00;;;14.83;;
9214;SDS011;4642;51.364;6.788;2024-03-08T02:11:11;20.50;;;15.13;;
9214;SDS011;4642;51.364;6.788;2024-03-08T02:13:36;24.40;;;16.27;;
9214;SDS011;4642;51.364;6.788;2024-03-08T02:16:02;22.13;;;16.00;;
9214;SDS011;4642;51.364;6.788;2024-03-08T02:18:30;23.47;;;16.73;;
9214;SDS011;4642;51.364;6.788;2024-03-08T02:21:00;21.17;;;16.30;;
9214;SDS011;4642;51.364;6.788;2024-03-08T02:23:27;23.30;;;16.00;;
9214;SDS011;4642;51.364;6.788;2024-03-08T02:25:53;21.10;;;16.53;;
9214;SDS011;4642;51.364;6.788;2024-03-08T02:28:20;23.53;;;17.47;;
9214;SDS011;4642;51.364;6.788;2024-03-08T02:30:49;26.30;;;17.50;;
9214;SDS011;4642;51.364;6.788;2024-03-08T02:33:21;24.47;;;17.13;;
9214;SDS011;4642;51.364;6.788;2024-03-08T02:35:48;22.67;;;16.17;;
9214;SDS011;4642;51.364;6.788;2024-03-08T02:38:16;22.80;;;16.77;;
9214;SDS011;4642;51.364;6.788;2024-03-08T02:40:43;22.60;;;17.33;;
9214;SDS011;4642;51.364;6.788;2024-03-08T02:43:10;24.80;;;16.73;;
9214;SDS011;4642;51.364;6.788;2024-03-08T02:45:36;20.73;;;15.83;;
9214;SDS011;4642;51.364;6.788;2024-03-08T02:48:02;25.93;;;17.07;;
9214;SDS011;4642;51.364;6.788;2024-03-08T02:50:28;22.83;;;15.97;;
9214;SDS011;4642;51.364;6.788;2024-03-08T02:52:53;22.80;;;15.63;;
9214;SDS011;4642;51.364;6.788;2024-03-08T02:55:19;23.60;;;16.17;;
9214;SDS011;4642;51.364;6.788;2024-03-08T02:57:45;24.03;;;16.43;;
9214;SDS011;4642;51.364;6.788;2024-03-08T03:00:14;24.60;;;16.23;;
9214;SDS011;4642;51.364;6.788;2024-03-08T03:02:40;21.57;;;15.73;;
9214;SDS011;4642;51.364;6.788;2024-03-08T03:05:07;22.30;;;16.43;;
9214;SDS011;4642;51.364;6.788;2024-03-08T03:07:34;25.60;;;17.07;;
9214;SDS011;4642;51.364;6.788;2024-03-08T03:10:00;21.43;;;16.10;;
9214;SDS011;4642;51.364;6.788;2024-03-08T03:12:29;23.47;;;17.17;;
9214;SDS011;4642;51.364;6.788;2024-03-08T03:14:59;23.00;;;17.07;;
9214;SDS011;4642;51.364;6.788;2024-03-08T03:17:25;24.87;;;17.80;;
9214;SDS011;4642;51.364;6.788;2024-03-08T03:19:51;23.90;;;17.37;;
9214;SDS011;4642;51.364;6.788;2024-03-08T03:22:18;27.83;;;18.10;;
9214;SDS011;4642;51.364;6.788;2024-03-08T03:24:44;24.77;;;17.37;;
9214;SDS011;4642;51.364;6.788;2024-03-08T03:27:11;23.43;;;17.47;;
9214;SDS011;4642;51.364;6.788;2024-03-08T03:29:40;22.17;;;16.63;;
9214;SDS011;4642;51.364;6.788;2024-03-08T03:32:10;23.93;;;17.80;;
9214;SDS011;4642;51.364;6.788;2024-03-08T03:34:39;19.53;;;15.60;;
9214;SDS011;4642;51.364;6.788;2024-03-08T03:37:06;25.63;;;17.30;;
9214;SDS011;4642;51.364;6.788;2024-03-08T03:39:33;27.93;;;18.77;;
9214;SDS011;4642;51.364;6.788;2024-03-08T03:41:59;22.53;;;17.00;;
9214;SDS011;4642;51.364;6.788;2024-03-08T03:44:28;26.47;;;17.90;;
9214;SDS011;4642;51.364;6.788;2024-03-08T03:46:53;31.37;;;18.70;;
9214;SDS011;4642;51.364;6.788;2024-03-08T03:49:19;24.87;;;18.40;;
9214;SDS011;4642;51.364;6.788;2024-03-08T04:02:04;25.60;;;17.50;;
9214;SDS011;4642;51.364;6.788;2024-03-08T04:17:57;25.57;;;18.20;;
9214;SDS011;4642;51.364;6.788;2024-03-08T04:20:25;29.33;;;19.07;;
9214;SDS011;4642;51.364;6.788;2024-03-08T04:22:51;26.37;;;18.40;;
9214;SDS011;4642;51.364;6.788;2024-03-08T04:25:16;25.77;;;18.53;;
9214;SDS011;4642;51.364;6.788;2024-03-08T04:27:42;27.93;;;17.67;;
9214;SDS011;4642;51.364;6.788;2024-03-08T04:30:09;26.40;;;18.17;;
9214;SDS011;4642;51.364;6.788;2024-03-08T04:32:35;24.47;;;17.30;;
9214;SDS011;4642;51.364;6.788;2024-03-08T04:35:01;26.17;;;18.07;;
9214;SDS011;4642;51.364;6.788;2024-03-08T04:37:28;27.00;;;18.50;;
9214;SDS011;4642;51.364;6.788;2024-03-08T04:39:56;25.93;;;19.07;;
9214;SDS011;4642;51.364;6.788;2024-03-08T04:42:22;26.07;;;18.60;;
9214;SDS011;4642;51.364;6.788;2024-03-08T04:44:48;26.10;;;19.10;;
9214;SDS011;4642;51.364;6.788;2024-03-08T04:47:13;27.97;;;18.20;;
9214;SDS011;4642;51.364;6.788;2024-03-08T04:49:39;32.87;;;20.57;;
9214;SDS011;4642;51.364;6.788;2024-03-08T04:52:04;32.57;;;18.63;;
9214;SDS011;4642;51.364;6.788;2024-03-08T04:54:31;35.03;;;20.00;;
9214;SDS011;4642;51.364;6.788;2024-03-08T04:56:57;39.90;;;19.87;;
9214;SDS011;4642;51.364;6.788;2024-03-08T04:59:25;32.13;;;20.10;;
9214;SDS011;4642;51.364;6.788;2024-03-08T05:01:52;31.00;;;18.83;;
9214;SDS011;4642;51.364;6.788;2024-03-08T05:04:17;29.03;;;18.67;;
9214;SDS011;4642;51.364;6.788;2024-03-08T05:06:43;25.73;;;19.37;;
9214;SDS011;4642;51.364;6.788;2024-03-08T05:09:08;27.63;;;20.27;;
9214;SDS011;4642;51.364;6.788;2024-03-08T05:11:43;28.57;;;19.47;;
9214;SDS011;4642;51.364;6.788;2024-03-08T05:14:09;28.00;;;19.37;;
9214;SDS011;4642;51.364;6.788;2024-03-08T05:16:35;28.80;;;20.57;;
9214;SDS011;4642;51.364;6.788;2024-03-08T05:19:01;27.47;;;19.43;;
9214;SDS011;4642;51.364;6.788;2024-03-08T05:21:27;32.10;;;20.20;;
9214;SDS011;4642;51.364;6.788;2024-03-08T05:23:53;27.40;;;19.40;;
9214;SDS011;4642;51.364;6.788;2024-03-08T05:26:19;32.17;;;20.57;;
9214;SDS011;4642;51.364;6.788;2024-03-08T05:28:45;25.30;;;18.13;;
9214;SDS011;4642;51.364;6.788;2024-03-08T05:31:17;26.77;;;19.50;;
9214;SDS011;4642;51.364;6.788;2024-03-08T05:33:47;27.83;;;19.67;;
9214;SDS011;4642;51.364;6.788;2024-03-08T05:36:12;34.70;;;19.60;;
9214;SDS011;4642;51.364;6.788;2024-03-08T05:38:40;29.47;;;19.77;;
9214;SDS011;4642;51.364;6.788;2024-03-08T05:41:07;31.30;;;21.20;;
9214;SDS011;4642;51.364;6.788;2024-03-08T05:43:32;30.43;;;19.43;;
9214;SDS011;4642;51.364;6.788;2024-03-08T05:45:58;29.20;;;20.40;;
9214;SDS011;4642;51.364;6.788;2024-03-08T05:48:23;27.77;;;19.43;;
9214;SDS011;4642;51.364;6.788;2024-03-08T05:50:50;30.57;;;20.70;;
9214;SDS011;4642;51.364;6.788;2024-03-08T05:53:15;28.20;;;20.20;;
9214;SDS011;4642;51.364;6.788;2024-03-08T05:55:41;26.90;;;19.23;;
9214;SDS011;4642;51.364;6.788;2024-03-08T05:58:07;31.00;;;20.20;;
9214;SDS011;4642;51.364;6.788;2024-03-08T06:00:33;30.83;;;20.87;;
9214;SDS011;4642;51.364;6.788;2024-03-08T06:02:59;32.07;;;20.37;;
9214;SDS011;4642;51.364;6.788;2024-03-08T06:05:25;31.20;;;21.83;;
9214;SDS011;4642;51.364;6.788;2024-03-08T06:07:50;29.80;;;20.87;;
9214;SDS011;4642;51.364;6.788;2024-03-08T06:10:18;27.97;;;19.50;;
9214;SDS011;4642;51.364;6.788;2024-03-08T06:12:44;32.97;;;22.07;;
9214;SDS011;4642;51.364;6.788;2024-03-08T06:15:10;29.90;;;20.33;;
9214;SDS011;4642;51.364;6.788;2024-03-08T06:17:39;31.07;;;21.53;;
9214;SDS011;4642;51.364;6.788;2024-03-08T06:20:05;32.60;;;21.63;;
9214;SDS011;4642;51.364;6.788;2024-03-08T06:22:37;32.83;;;22.43;;
9214;SDS011;4642;51.364;6.788;2024-03-08T06:25:05;31.43;;;21.17;;
9214;SDS011;4642;51.364;6.788;2024-03-08T06:27:32;29.77;;;20.90;;
9214;SDS011;4642;51.364;6.788;2024-03-08T06:29:58;34.53;;;22.20;;
9214;SDS011;4642;51.364;6.788;2024-03-08T06:32:24;30.00;;;20.50;;
9214;SDS011;4642;51.364;6.788;2024-03-08T06:34:50;33.40;;;21.77;;
9214;SDS011;4642;51.364;6.788;2024-03-08T06:37:16;28.50;;;21.43;;
9214;SDS011;4642;51.364;6.788;2024-03-08T06:39:46;32.03;;;22.43;;
9214;SDS011;4642;51.364;6.788;2024-03-08T06:42:12;30.70;;;22.17;;
9214;SDS011;4642;51.364;6.788;2024-03-08T06:44:38;32.57;;;22.33;;
9214;SDS011;4642;51.364;6.788;2024-03-08T06:47:10;32.10;;;22.47;;
9214;SDS011;4642;51.364;6.788;2024-03-08T06:49:36;31.17;;;22.07;;
9214;SDS011;4642;51.364;6.788;2024-03-08T06:52:01;32.80;;;22.70;;
9214;SDS011;4642;51.364;6.788;2024-03-08T06:54:27;35.53;;;22.90;;
9214;SDS011;4642;51.364;6.788;2024-03-08T06:56:52;36.33;;;24.23;;
9214;SDS011;4642;51.364;6.788;2024-03-08T06:59:18;36.10;;;22.90;;
9214;SDS011;4642;51.364;6.788;2024-03-08T07:01:44;33.27;;;22.87;;
9214;SDS011;4642;51.364;6.788;2024-03-08T07:04:09;34.03;;;22.73;;
9214;SDS011;4642;51.364;6.788;2024-03-08T07:06:36;33.87;;;22.50;;
9214;SDS011;4642;51.364;6.788;2024-03-08T07:09:02;33.87;;;24.00;;
9214;SDS011;4642;51.364;6.788;2024-03-08T07:11:27;37.37;;;24.10;;
9214;SDS011;4642;51.364;6.788;2024-03-08T07:13:53;33.93;;;22.70;;
9214;SDS011;4642;51.364;6.788;2024-03-08T07:16:19;33.73;;;23.17;;
9214;SDS011;4642;51.364;6.788;2024-03-08T07:18:46;32.67;;;22.37;;
9214;SDS011;4642;51.364;6.788;2024-03-08T07:21:12;32.80;;;23.53;;
9214;SDS011;4642;51.364;6.788;2024-03-08T07:23:37;34.40;;;23.20;;
9214;SDS011;4642;51.364;6.788;2024-03-08T07:26:18;33.43;;;22.30;;
9214;SDS011;4642;51.364;6.788;2024-03-08T07:28:45;33.97;;;23.23;;
9214;SDS011;4642;51.364;6.788;2024-03-08T07:31:10;33.10;;;22.83;;
9214;SDS011;4642;51.364;6.788;2024-03-08T07:33:39;31.03;;;21.93;;
9214;SDS011;4642;51.364;6.788;2024-03-08T07:36:04;30.57;;;22.03;;
9214;SDS011;4642;51.364;6.788;2024-03-08T07:38:30;36.90;;;23.60;;
9214;SDS011;4642;51.364;6.788;2024-03-08T07:40:55;34.57;;;23.07;;
9214;SDS011;4642;51.364;6.788;2024-03-08T07:43:22;35.30;;;23.00;;
9214;SDS011;4642;51.364;6.788;2024-03-08T07:45:47;37.10;;;24.57;;
9214;SDS011;4642;51.364;6.788;2024-03-08T07:48:13;38.13;;;23.77;;
9214;SDS011;4642;51.364;6.788;2024-03-08T07:50:39;37.50;;;25.53;;
9214;SDS011;4642;51.364;6.788;2024-03-08T07:53:05;35.50;;;23.57;;
9214;SDS011;4642;51.364;6.788;2024-03-08T07:55:34;36.00;;;25.20;;
9214;SDS011;4642;51.364;6.788;2024-03-08T07:58:03;38.40;;;23.87;;
9214;SDS011;4642;51.364;6.788;2024-03-08T08:00:32;38.70;;;25.27;;
9214;SDS011;4642;51.364;6.788;2024-03-08T08:02:57;33.67;;;23.97;;
9214;SDS011;4642;51.364;6.788;2024-03-08T08:05:23;33.70;;;24.17;;
9214;SDS011;4642;51.364;6.788;2024-03-08T08:07:49;37.90;;;25.53;;
9214;SDS011;4642;51.364;6.788;2024-03-08T08:10:15;37.13;;;24.43;;
9214;SDS011;4642;51.364;6.788;2024-03-08T08:12:50;38.73;;;24.33;;
9214;SDS011;4642;51.364;6.788;2024-03-08T08:15:18;40.57;;;23.63;;
9214;SDS011;4642;51.364;6.788;2024-03-08T08:17:44;32.50;;;22.77;;
9214;SDS011;4642;51.364;6.788;2024-03-08T08:20:13;32.87;;;23.43;;
9214;SDS011;4642;51.364;6.788;2024-03-08T08:22:42;28.67;;;20.53;;
9214;SDS011;4642;51.364;6.788;2024-03-08T08:25:12;28.77;;;20.40;;
9214;SDS011;4642;51.364;6.788;2024-03-08T08:27:38;27.60;;;19.33;;
9214;SDS011;4642;51.364;6.788;2024-03-08T08:30:10;28.60;;;18.17;;
9214;SDS011;4642;51.364;6.788;2024-03-08T08:32:36;27.03;;;17.43;;
9214;SDS011;4642;51.364;6.788;2024-03-08T08:35:02;26.43;;;17.53;;
9214;SDS011;4642;51.364;6.788;2024-03-08T08:37:29;25.60;;;18.33;;
9214;SDS011;4642;51.364;6.788;2024-03-08T08:39:56;22.47;;;16.13;;
9214;SDS011;4642;51.364;6.788;2024-03-08T08:42:22;28.87;;;16.93;;
9214;SDS011;4642;51.364;6.788;2024-03-08T08:44:48;22.97;;;16.40;;
9214;SDS011;4642;51.364;6.788;2024-03-08T08:47:15;23.87;;;16.33;;
9214;SDS011;4642;51.364;6.788;2024-03-08T08:49:43;19.73;;;15.10;;
9214;SDS011;4642;51.364;6.788;2024-03-08T08:52:11;22.30;;;15.10;;
9214;SDS011;4642;51.364;6.788;2024-03-08T08:54:36;21.17;;;15.40;;
9214;SDS011;4642;51.364;6.788;2024-03-08T08:57:02;21.70;;;16.00;;
9214;SDS011;4642;51.364;6.788;2024-03-08T08:59:32;27.60;;;20.73;;
9214;SDS011;4642;51.364;6.788;2024-03-08T09:02:00;32.93;;;25.10;;
9214;SDS011;4642;51.364;6.788;2024-03-08T09:04:26;20.77;;;15.37;;
9214;SDS011;4642;51.364;6.788;2024-03-08T09:06:52;18.57;;;15.90;;
9214;SDS011;4642;51.364;6.788;2024-03-08T09:09:18;19.77;;;14.27;;
9214;SDS011;4642;51.364;6.788;2024-03-08T09:11:44;22.13;;;14.97;;
9214;SDS011;4642;51.364;6.788;2024-03-08T09:14:11;22.77;;;15.77;;
9214;SDS011;4642;51.364;6.788;2024-03-08T09:16:36;21.80;;;15.50;;
9214;SDS011;4642;51.364;6.788;2024-03-08T09:19:02;20.87;;;15.13;;
9214;SDS011;4642;51.364;6.788;2024-03-08T09:21:28;20.77;;;15.00;;
9214;SDS011;4642;51.364;6.788;2024-03-08T09:23:53;20.90;;;14.67;;
9214;SDS011;4642;51.364;6.788;2024-03-08T09:26:19;20.33;;;13.60;;
9214;SDS011;4642;51.364;6.788;2024-03-08T09:28:45;18.70;;;13.57;;
9214;SDS011;4642;51.364;6.788;2024-03-08T09:31:11;17.87;;;14.30;;
9214;SDS011;4642;51.364;6.788;2024-03-08T09:33:37;18.97;;;13.77;;
9214;SDS011;4642;51.364;6.788;2024-03-08T09:36:04;23.13;;;15.70;;
9214;SDS011;4642;51.364;6.788;2024-03-08T09:38:30;24.63;;;15.23;;
9214;SDS011;4642;51.364;6.788;2024-03-08T09:40:56;22.93;;;16.80;;
9214;SDS011;4642;51.364;6.788;2024-03-08T09:43:22;20.90;;;15.67;;
9214;SDS011;4642;51.364;6.788;2024-03-08T09:45:49;23.10;;;15.50;;
9214;SDS011;4642;51.364;6.788;2024-03-08T09:48:16;21.07;;;15.73;;
9214;SDS011;4642;51.364;6.788;2024-03-08T09:50:44;19.73;;;15.50;;
9214;SDS011;4642;51.364;6.788;2024-03-08T09:53:11;21.80;;;16.33;;
9214;SDS011;4642;51.364;6.788;2024-03-08T09:55:37;19.43;;;13.47;;
9214;SDS011;4642;51.364;6.788;2024-03-08T09:58:07;14.83;;;11.53;;
9214;SDS011;4642;51.364;6.788;2024-03-08T10:01:01;16.63;;;12.17;;
9214;SDS011;4642;51.364;6.788;2024-03-08T10:03:29;16.90;;;12.37;;
9214;SDS011;4642;51.364;6.788;2024-03-08T10:05:57;16.63;;;13.13;;
9214;SDS011;4642;51.364;6.788;2024-03-08T10:08:26;15.00;;;11.93;;
9214;SDS011;4642;51.364;6.788;2024-03-08T10:10:54;15.90;;;11.77;;
9214;SDS011;4642;51.364;6.788;2024-03-08T10:13:20;17.00;;;10.83;;
9214;SDS011;4642;51.364;6.788;2024-03-08T10:15:46;13.73;;;10.50;;
9214;SDS011;4642;51.364;6.788;2024-03-08T10:18:11;13.80;;;10.30;;
9214;SDS011;4642;51.364;6.788;2024-03-08T10:20:37;15.17;;;11.23;;
9214;SDS011;4642;51.364;6.788;2024-03-08T10:23:03;14.80;;;11.10;;
9214;SDS011;4642;51.364;6.788;2024-03-08T10:25:30;13.73;;;10.90;;
9214;SDS011;4642;51.364;6.788;2024-03-08T10:27:59;13.70;;;10.37;;
9214;SDS011;4642;51.364;6.788;2024-03-08T10:30:29;14.47;;;10.47;;
9214;SDS011;4642;51.364;6.788;2024-03-08T10:32:55;14.40;;;9.93;;
9214;SDS011;4642;51.364;6.788;2024-03-08T10:35:20;12.33;;;9.57;;
9214;SDS011;4642;51.364;6.788;2024-03-08T10:37:48;11.40;;;9.50;;
9214;SDS011;4642;51.364;6.788;2024-03-08T10:40:18;13.57;;;9.67;;
9214;SDS011;4642;51.364;6.788;2024-03-08T10:42:54;13.30;;;10.30;;
9214;SDS011;4642;51.364;6.788;2024-03-08T10:51:02;13.80;;;10.37;;
9214;SDS011;4642;51.364;6.788;2024-03-08T10:53:28;11.23;;;9.23;;
9214;SDS011;4642;51.364;6.788;2024-03-08T10:55:56;14.57;;;9.03;;
9214;SDS011;4642;51.364;6.788;2024-03-08T10:58:22;12.70;;;8.87;;
9214;SDS011;4642;51.364;6.788;2024-03-08T11:00:52;11.33;;;9.50;;
9214;SDS011;4642;51.364;6.788;2024-03-08T11:08:41;14.70;;;8.57;;
9214;SDS011;4642;51.364;6.788;2024-03-08T11:11:22;11.00;;;9.10;;
9214;SDS011;4642;51.364;6.788;2024-03-08T11:13:55;12.33;;;9.33;;
9214;SDS011;4642;51.364;6.788;2024-03-08T11:16:36;12.23;;;8.77;;
9214;SDS011;4642;51.364;6.788;2024-03-08T11:19:06;11.67;;;8.67;;
9214;SDS011;4642;51.364;6.788;2024-03-08T11:21:35;11.33;;;8.63;;
9214;SDS011;4642;51.364;6.788;2024-03-08T11:24:10;11.93;;;9.00;;
9214;SDS011;4642;51.364;6.788;2024-03-08T11:26:38;10.47;;;8.00;;
9214;SDS011;4642;51.364;6.788;2024-03-08T11:31:52;11.30;;;8.10;;
9214;SDS011;4642;51.364;6.788;2024-03-08T11:34:28;10.87;;;7.80;;
9214;SDS011;4642;51.364;6.788;2024-03-08T11:36:55;9.50;;;7.23;;
9214;SDS011;4642;51.364;6.788;2024-03-08T11:39:21;10.03;;;7.27;;
9214;SDS011;4642;51.364;6.788;2024-03-08T11:41:49;10.97;;;7.90;;
9214;SDS011;4642;51.364;6.788;2024-03-08T11:44:14;10.70;;;7.97;;
9214;SDS011;4642;51.364;6.788;2024-03-08T11:46:42;9.90;;;7.87;;
9214;SDS011;4642;51.364;6.788;2024-03-08T11:49:11;10.07;;;7.43;;
9214;SDS011;4642;51.364;6.788;2024-03-08T11:51:37;10.13;;;7.97;;
9214;SDS011;4642;51.364;6.788;2024-03-08T11:54:03;11.20;;;7.17;;
9214;SDS011;4642;51.364;6.788;2024-03-08T11:56:31;9.73;;;7.60;;
9214;SDS011;4642;51.364;6.788;2024-03-08T11:58:57;10.23;;;7.33;;
9214;SDS011;4642;51.364;6.788;2024-03-08T12:01:23;9.27;;;7.20;;
9214;SDS011;4642;51.364;6.788;2024-03-08T12:03:55;9.80;;;7.33;;
9214;SDS011;4642;51.364;6.788;2024-03-08T12:06:25;8.60;;;7.17;;
9214;SDS011;4642;51.364;6.788;2024-03-08T12:08:51;11.10;;;7.27;;
9214;SDS011;4642;51.364;6.788;2024-03-08T12:11:17;8.53;;;7.20;;
9214;SDS011;4642;51.364;6.788;2024-03-08T12:13:47;9.30;;;7.30;;
9214;SDS011;4642;51.364;6.788;2024-03-08T12:16:15;7.93;;;7.00;;
9214;SDS011;4642;51.364;6.788;2024-03-08T12:18:46;9.10;;;7.20;;
9214;SDS011;4642;51.364;6.788;2024-03-08T12:21:13;8.77;;;7.60;;
9214;SDS011;4642;51.364;6.788;2024-03-08T12:23:42;9.60;;;7.40;;
9214;SDS011;4642;51.364;6.788;2024-03-08T12:26:16;10.03;;;7.13;;
9214;SDS011;4642;51.364;6.788;2024-03-08T12:28:48;11.13;;;8.17;;
9214;SDS011;4642;51.364;6.788;2024-03-08T12:31:14;9.80;;;7.10;;
9214;SDS011;4642;51.364;6.788;2024-03-08T12:36:24;9.97;;;7.53;;
9214;SDS011;4642;51.364;6.788;2024-03-08T12:38:50;8.23;;;6.37;;
9214;SDS011;4642;51.364;6.788;2024-03-08T12:41:19;11.93;;;6.43;;
9214;SDS011;4642;51.364;6.788;2024-03-08T12:43:46;9.40;;;6.73;;
9214;SDS011;4642;51.364;6.788;2024-03-08T12:46:14;10.60;;;7.17;;
9214;SDS011;4642;51.364;6.788;2024-03-08T12:48:40;8.43;;;6.93;;
9214;SDS011;4642;51.364;6.788;2024-03-08T12:51:08;9.77;;;6.80;;
9214;SDS011;4642;51.364;6.788;2024-03-08T12:53:35;9.90;;;7.70;;
9214;SDS011;4642;51.364;6.788;2024-03-08T12:56:00;10.13;;;6.97;;
9214;SDS011;4642;51.364;6.788;2024-03-08T12:58:26;7.93;;;6.30;;
9214;SDS011;4642;51.364;6.788;2024-03-08T13:00:52;9.07;;;6.70;;
9214;SDS011;4642;51.364;6.788;2024-03-08T13:03:17;7.63;;;6.37;;
9214;SDS011;4642;51.364;6.788;2024-03-08T13:05:43;7.67;;;6.37;;
9214;SDS011;4642;51.364;6.788;2024-03-08T13:08:09;9.00;;;6.60;;
9214;SDS011;4642;51.364;6.788;2024-03-08T13:10:38;9.63;;;6.30;;
9214;SDS011;4642;51.364;6.788;2024-03-08T13:13:04;8.13;;;6.67;;
9214;SDS011;4642;51.364;6.788;2024-03-08T13:15:30;8.73;;;6.90;;
9214;SDS011;4642;51.364;6.788;2024-03-08T13:17:56;7.93;;;6.63;;
9214;SDS011;4642;51.364;6.788;2024-03-08T13:20:25;7.73;;;6.47;;
9214;SDS011;4642;51.364;6.788;2024-03-08T13:22:53;9.23;;;6.43;;
9214;SDS011;4642;51.364;6.788;2024-03-08T13:25:18;8.80;;;6.77;;
9214;SDS011;4642;51.364;6.788;2024-03-08T13:27:45;8.90;;;6.80;;
9214;SDS011;4642;51.364;6.788;2024-03-08T13:30:11;10.83;;;6.37;;
9214;SDS011;4642;51.364;6.788;2024-03-08T13:32:42;7.37;;;5.97;;
9214;SDS011;4642;51.364;6.788;2024-03-08T13:35:08;7.77;;;6.47;;
9214;SDS011;4642;51.364;6.788;2024-03-08T13:37:40;6.50;;;5.70;;
9214;SDS011;4642;51.364;6.788;2024-03-08T13:40:07;8.50;;;6.40;;
9214;SDS011;4642;51.364;6.788;2024-03-08T13:42:38;9.40;;;6.93;;
9214;SDS011;4642;51.364;6.788;2024-03-08T13:45:05;8.57;;;6.27;;
9214;SDS011;4642;51.364;6.788;2024-03-08T13:47:32;9.80;;;6.67;;
9214;SDS011;4642;51.364;6.788;2024-03-08T13:49:59;9.40;;;7.33;;
9214;SDS011;4642;51.364;6.788;2024-03-08T13:52:25;9.63;;;7.00;;
9214;SDS011;4642;51.364;6.788;2024-03-08T13:54:54;17.27;;;6.93;;
9214;SDS011;4642;51.364;6.788;2024-03-08T13:57:19;9.70;;;6.50;;
9214;SDS011;4642;51.364;6.788;2024-03-08T13:59:45;6.93;;;5.63;;
9214;SDS011;4642;51.364;6.788;2024-03-08T14:02:11;6.73;;;5.80;;
9214;SDS011;4642;51.364;6.788;2024-03-08T14:04:38;8.33;;;6.60;;
9214;SDS011;4642;51.364;6.788;2024-03-08T14:07:06;8.80;;;6.93;;
9214;SDS011;4642;51.364;6.788;2024-03-08T14:09:33;8.43;;;6.77;;
9214;SDS011;4642;51.364;6.788;2024-03-08T14:12:02;8.90;;;6.77;;
9214;SDS011;4642;51.364;6.788;2024-03-08T14:14:32;11.23;;;7.13;;
9214;SDS011;4642;51.364;6.788;2024-03-08T14:17:00;13.93;;;6.50;;
9214;SDS011;4642;51.364;6.788;2024-03-08T14:19:29;10.40;;;6.70;;
9214;SDS011;4642;51.364;6.788;2024-03-08T14:21:56;8.80;;;7.40;;
9214;SDS011;4642;51.364;6.788;2024-03-08T14:24:24;9.70;;;7.60;;
9214;SDS011;4642;51.364;6.788;2024-03-08T14:26:49;10.67;;;6.50;;
9214;SDS011;4642;51.364;6.788;2024-03-08T14:29:16;9.10;;;6.93;;
9214;SDS011;4642;51.364;6.788;2024-03-08T14:31:43;9.23;;;7.30;;
9214;SDS011;4642;51.364;6.788;2024-03-08T14:34:08;10.63;;;7.37;;
9214;SDS011;4642;51.364;6.788;2024-03-08T14:36:34;7.97;;;6.70;;
9214;SDS011;4642;51.364;6.788;2024-03-08T14:39:00;9.23;;;7.10;;
9214;SDS011;4642;51.364;6.788;2024-03-08T14:41:25;7.97;;;6.87;;
9214;SDS011;4642;51.364;6.788;2024-03-08T14:43:51;8.90;;;6.80;;
9214;SDS011;4642;51.364;6.788;2024-03-08T14:46:22;9.87;;;7.67;;
9214;SDS011;4642;51.364;6.788;2024-03-08T14:48:51;8.73;;;7.17;;
9214;SDS011;4642;51.364;6.788;2024-03-08T14:51:17;8.43;;;6.93;;
9214;SDS011;4642;51.364;6.788;2024-03-08T14:53:46;9.80;;;7.20;;
9214;SDS011;4642;51.364;6.788;2024-03-08T14:56:12;11.40;;;6.63;;
9214;SDS011;4642;51.364;6.788;2024-03-08T14:58:41;10.17;;;7.77;;
9214;SDS011;4642;51.364;6.788;2024-03-08T15:01:08;8.73;;;7.57;;
9214;SDS011;4642;51.364;6.788;2024-03-08T15:03:41;10.60;;;7.50;;
9214;SDS011;4642;51.364;6.788;2024-03-08T15:06:10;9.47;;;7.63;;
9214;SDS011;4642;51.364;6.788;2024-03-08T15:08:37;8.73;;;7.53;;
9214;SDS011;4642;51.364;6.788;2024-03-08T15:11:03;9.87;;;7.30;;
9214;SDS011;4642;51.364;6.788;2024-03-08T15:13:30;14.00;;;7.83;;
9214;SDS011;4642;51.364;6.788;2024-03-08T15:16:10;10.07;;;7.60;;
9214;SDS011;4642;51.364;6.788;2024-03-08T15:18:42;8.87;;;7.50;;
9214;SDS011;4642;51.364;6.788;2024-03-08T15:21:12;9.93;;;7.20;;
9214;SDS011;4642;51.364;6.788;2024-03-08T15:23:44;11.47;;;8.13;;
9214;SDS011;4642;51.364;6.788;2024-03-08T15:26:15;10.90;;;8.47;;
9214;SDS011;4642;51.364;6.788;2024-03-08T15:28:43;13.57;;;8.03;;
9214;SDS011;4642;51.364;6.788;2024-03-08T15:31:10;13.67;;;7.90;;
9214;SDS011;4642;51.364;6.788;2024-03-08T15:33:38;12.47;;;8.30;;
9214;SDS011;4642;51.364;6.788;2024-03-08T15:36:13;10.27;;;8.23;;